sensor_id;sensor_type;location;lat;lon;timestamp;pressure;altitude;pressure_sealevel;temperature;humidity
4133;BME280;2080;51.038;7.008;2023-06-24T00:01:24;47673.66;;;-142.53;100.00
4133;BME280;2080;51.038;7.008;2023-06-24T00:03:49;47665.94;;;-142.53;100.00
4133;BME280;2080;51.038;7.008;2023-06-24T00:06:18;47690.97;;;-142.53;100.00
4133;BME280;2080;51.038;7.008;2023-06-24T00:08:52;47692.91;;;-142.53;100.00
4133;BME280;2080;51.038;7.008;2023-06-24T00:11:25;47648.63;;;-142.53;100.00
4133;BME280;2080;51.038;7.008;2023-06-24T00:13:50;47664.03;;;-142.53;100.00
4133;BME280;2080;51.038;7.008;2023-06-24T00:16:16;47679.44;;;-142.53;100.00
4133;BME280;2080;51.038;7.008;2023-06-24T00:18:51;47664.03;;;-142.53;100.00
4133;BME280;2080;51.038;7.008;2023-06-24T00:21:18;47648.63;;;-142.53;100.00
4133;BME280;2080;51.038;7.008;2023-06-24T00:23:46;47652.47;;;-142.53;100.00
4133;BME280;2080;51.038;7.008;2023-06-24T00:26:14;47683.28;;;-142.53;100.00
4133;BME280;2080;51.038;7.008;2023-06-24T00:28:39;47660.16;;;-142.53;100.00
4133;BME280;2080;51.038;7.008;2023-06-24T00:31:07;47644.75;;;-142.53;100.00
4133;BME280;2080;51.038;7.008;2023-06-24T00:33:32;47648.63;;;-142.53;100.00
4133;BME280;2080;51.038;7.008;2023-06-24T00:36:01;47652.47;;;-142.53;100.00
4133;BME280;2080;51.038;7.008;2023-06-24T00:38:26;47648.63;;;-142.53;100.00
4133;BME280;2080;51.038;7.008;2023-06-24T00:40:51;47667.88;;;-142.53;100.00
4133;BME280;2080;51.038;7.008;2023-06-24T00:43:17;47667.88;;;-142.53;100.00
4133;BME280;2080;51.038;7.008;2023-06-24T00:45:42;47683.28;;;-142.53;100.00
4133;BME280;2080;51.038;7.008;2023-06-24T00:48:11;47671.72;;;-142.53;100.00
4133;BME280;2080;51.038;7.008;2023-06-24T00:50:36;47690.97;;;-142.53;100.00
4133;BME280;2080;51.038;7.008;2023-06-24T00:53:03;47760.31;;;-142.53;100.00
4133;BME280;2080;51.038;7.008;2023-06-24T00:55:28;47660.16;;;-142.53;100.00
4133;BME280;2080;51.038;7.008;2023-06-24T00:57:54;47679.44;;;-142.53;100.00
4133;BME280;2080;51.038;7.008;2023-06-24T01:00:20;47698.69;;;-142.53;100.00
4133;BME280;2080;51.038;7.008;2023-06-24T01:02:48;47696.75;;;-142.53;100.00
4133;BME280;2080;51.038;7.008;2023-06-24T01:05:13;47687.13;;;-142.53;100.00
4133;BME280;2080;51.038;7.008;2023-06-24T01:07:40;47687.13;;;-142.53;100.00
4133;BME280;2080;51.038;7.008;2023-06-24T01:10:08;47687.13;;;-142.53;100.00
4133;BME280;2080;51.038;7.008;2023-06-24T01:12:37;47690.97;;;-142.53;100.00
4133;BME280;2080;51.038;7.008;2023-06-24T01:15:06;47687.13;;;-142.53;100.00
4133;BME280;2080;51.038;7.008;2023-06-24T01:17:54;47685.19;;;-142.53;100.00
4133;BME280;2080;51.038;7.008;2023-06-24T01:20:23;47658.25;;;-142.53;100.00
4133;BME280;2080;51.038;7.008;2023-06-24T01:31:06;47698.69;;;-142.53;100.00
4133;BME280;2080;51.038;7.008;2023-06-24T01:33:38;47687.13;;;-142.53;100.00
4133;BME280;2080;51.038;7.008;2023-06-24T01:36:09;47667.88;;;-142.53;100.00
4133;BME280;2080;51.038;7.008;2023-06-24T01:38:39;47679.44;;;-142.53;100.00
4133;BME280;2080;51.038;7.008;2023-06-24T01:41:06;47671.72;;;-142.53;100.00
4133;BME280;2080;51.038;7.008;2023-06-24T01:43:34;47694.84;;;-142.53;100.00
4133;BME280;2080;51.038;7.008;2023-06-24T01:46:00;47679.44;;;-142.53;100.00
4133;BME280;2080;51.038;7.008;2023-06-24T01:48:30;47700.63;;;-142.53;100.00
4133;BME280;2080;51.038;7.008;2023-06-24T01:50:58;47690.97;;;-142.53;100.00
4133;BME280;2080;51.038;7.008;2023-06-24T01:53:27;47687.13;;;-142.53;100.00
4133;BME280;2080;51.038;7.008;2023-06-24T01:55:54;47681.34;;;-142.53;100.00
4133;BME280;2080;51.038;7.008;2023-06-24T01:58:19;47644.75;;;-142.53;100.00
4133;BME280;2080;51.038;7.008;2023-06-24T02:00:49;47673.66;;;-142.53;100.00
4133;BME280;2080;51.038;7.008;2023-06-24T02:03:15;47690.97;;;-142.53;100.00
4133;BME280;2080;51.038;7.008;2023-06-24T02:05:40;47675.56;;;-142.53;100.00
4133;BME280;2080;51.038;7.008;2023-06-24T02:08:09;47733.34;;;-142.53;100.00
4133;BME280;2080;51.038;7.008;2023-06-24T02:10:37;47687.13;;;-142.53;100.00
4133;BME280;2080;51.038;7.008;2023-06-24T02:13:07;47706.38;;;-142.53;100.00
4133;BME280;2080;51.038;7.008;2023-06-24T02:15:34;47704.47;;;-142.53;100.00
4133;BME280;2080;51.038;7.008;2023-06-24T02:18:00;47694.84;;;-142.53;100.00
4133;BME280;2080;51.038;7.008;2023-06-24T02:20:27;47689.06;;;-142.53;100.00
4133;BME280;2080;51.038;7.008;2023-06-24T02:22:54;47687.13;;;-142.53;100.00
4133;BME280;2080;51.038;7.008;2023-06-24T02:25:20;47690.97;;;-142.53;100.00
4133;BME280;2080;51.038;7.008;2023-06-24T02:27:45;47679.44;;;-142.53;100.00
4133;BME280;2080;51.038;7.008;2023-06-24T02:30:14;47656.31;;;-142.53;100.00
4133;BME280;2080;51.038;7.008;2023-06-24T02:32:40;47702.53;;;-142.53;100.00
4133;BME280;2080;51.038;7.008;2023-06-24T02:35:07;47664.03;;;-142.53;100.00
4133;BME280;2080;51.038;7.008;2023-06-24T02:37:33;47679.44;;;-142.53;100.00
4133;BME280;2080;51.038;7.008;2023-06-24T02:39:58;47690.97;;;-142.53;100.00
4133;BME280;2080;51.038;7.008;2023-06-24T02:42:27;47687.13;;;-142.53;100.00
4133;BME280;2080;51.038;7.008;2023-06-24T02:44:52;47717.94;;;-142.53;100.00
4133;BME280;2080;51.038;7.008;2023-06-24T02:47:17;47681.34;;;-142.53;100.00
4133;BME280;2080;51.038;7.008;2023-06-24T02:49:44;47679.44;;;-142.53;100.00
4133;BME280;2080;51.038;7.008;2023-06-24T02:52:11;47714.09;;;-142.53;100.00
4133;BME280;2080;51.038;7.008;2023-06-24T02:54:36;47725.66;;;-142.53;100.00
4133;BME280;2080;51.038;7.008;2023-06-24T02:57:06;47648.63;;;-142.53;100.00
4133;BME280;2080;51.038;7.008;2023-06-24T02:59:36;47716.03;;;-142.53;100.00
4133;BME280;2080;51.038;7.008;2023-06-24T03:02:03;47708.31;;;-142.53;100.00
4133;BME280;2080;51.038;7.008;2023-06-24T03:04:30;47652.47;;;-142.53;100.00
4133;BME280;2080;51.038;7.008;2023-06-24T03:06:57;47706.38;;;-142.53;100.00
4133;BME280;2080;51.038;7.008;2023-06-24T03:09:24;47652.47;;;-142.53;100.00
4133;BME280;2080;51.038;7.008;2023-06-24T03:11:50;47687.13;;;-142.53;100.00
4133;BME280;2080;51.038;7.008;2023-06-24T03:14:15;47683.28;;;-142.53;100.00
4133;BME280;2080;51.038;7.008;2023-06-24T03:16:40;47687.13;;;-142.53;100.00
4133;BME280;2080;51.038;7.008;2023-06-24T03:19:08;47664.03;;;-142.53;100.00
4133;BME280;2080;51.038;7.008;2023-06-24T03:21:38;47687.13;;;-142.53;100.00
4133;BME280;2080;51.038;7.008;2023-06-24T03:24:06;47704.47;;;-142.53;100.00
4133;BME280;2080;51.038;7.008;2023-06-24T03:26:32;47675.56;;;-142.53;100.00
4133;BME280;2080;51.038;7.008;2023-06-24T03:28:58;47689.06;;;-142.53;100.00
4133;BME280;2080;51.038;7.008;2023-06-24T03:31:23;47685.19;;;-142.53;100.00
4133;BME280;2080;51.038;7.008;2023-06-24T03:33:49;47690.97;;;-142.53;100.00
4133;BME280;2080;51.038;7.008;2023-06-24T03:36:14;47679.44;;;-142.53;100.00
4133;BME280;2080;51.038;7.008;2023-06-24T03:38:39;47702.53;;;-142.53;100.00
4133;BME280;2080;51.038;7.008;2023-06-24T03:41:05;47648.63;;;-142.53;100.00
4133;BME280;2080;51.038;7.008;2023-06-24T03:43:31;47675.56;;;-142.53;100.00
4133;BME280;2080;51.038;7.008;2023-06-24T03:45:58;47664.03;;;-142.53;100.00
4133;BME280;2080;51.038;7.008;2023-06-24T03:48:27;47679.44;;;-142.53;100.00
4133;BME280;2080;51.038;7.008;2023-06-24T03:50:52;47687.13;;;-142.53;100.00
4133;BME280;2080;51.038;7.008;2023-06-24T03:53:17;47702.53;;;-142.53;100.00
4133;BME280;2080;51.038;7.008;2023-06-24T03:55:43;47687.13;;;-142.53;100.00
4133;BME280;2080;51.038;7.008;2023-06-24T03:58:08;47671.72;;;-142.53;100.00
4133;BME280;2080;51.038;7.008;2023-06-24T04:00:35;47710.25;;;-142.53;100.00
4133;BME280;2080;51.038;7.008;2023-06-24T04:03:08;47675.56;;;-142.53;100.00
4133;BME280;2080;51.038;7.008;2023-06-24T04:05:33;47717.94;;;-142.53;100.00
4133;BME280;2080;51.038;7.008;2023-06-24T04:07:59;47679.44;;;-142.53;100.00
4133;BME280;2080;51.038;7.008;2023-06-24T04:10:28;47679.44;;;-142.53;100.00
4133;BME280;2080;51.038;7.008;2023-06-24T04:12:54;47664.03;;;-142.53;100.00
4133;BME280;2080;51.038;7.008;2023-06-24T04:15:19;47656.31;;;-142.53;100.00
4133;BME280;2080;51.038;7.008;2023-06-24T04:17:44;47664.03;;;-142.53;100.00
4133;BME280;2080;51.038;7.008;2023-06-24T04:20:09;47656.31;;;-142.53;100.00
4133;BME280;2080;51.038;7.008;2023-06-24T04:22:40;47660.16;;;-142.53;100.00
4133;BME280;2080;51.038;7.008;2023-06-24T04:25:05;47648.63;;;-142.53;100.00
4133;BME280;2080;51.038;7.008;2023-06-24T04:27:31;47625.50;;;-142.53;100.00
4133;BME280;2080;51.038;7.008;2023-06-24T04:29:56;47602.38;;;-142.53;100.00
4133;BME280;2080;51.038;7.008;2023-06-24T04:32:24;47648.63;;;-142.53;100.00
4133;BME280;2080;51.038;7.008;2023-06-24T04:34:49;47648.63;;;-142.53;100.00
4133;BME280;2080;51.038;7.008;2023-06-24T04:37:14;47664.03;;;-142.53;100.00
4133;BME280;2080;51.038;7.008;2023-06-24T04:39:40;47633.19;;;-142.53;100.00
4133;BME280;2080;51.038;7.008;2023-06-24T04:42:05;47656.31;;;-142.53;100.00
4133;BME280;2080;51.038;7.008;2023-06-24T04:44:33;47598.53;;;-142.53;100.00
4133;BME280;2080;51.038;7.008;2023-06-24T04:47:00;47631.28;;;-142.53;100.00
4133;BME280;2080;51.038;7.008;2023-06-24T04:49:25;47652.47;;;-142.53;100.00
4133;BME280;2080;51.038;7.008;2023-06-24T04:51:50;47652.47;;;-142.53;99.22
4133;BME280;2080;51.038;7.008;2023-06-24T04:54:16;47648.63;;;-142.53;99.37
4133;BME280;2080;51.038;7.008;2023-06-24T04:56:41;47625.50;;;-142.53;98.40
4133;BME280;2080;51.038;7.008;2023-06-24T04:59:06;47633.19;;;-142.53;97.12
4133;BME280;2080;51.038;7.008;2023-06-24T05:01:31;47635.13;;;-142.53;95.59
4133;BME280;2080;51.038;7.008;2023-06-24T05:03:57;47606.25;;;-142.53;92.95
4133;BME280;2080;51.038;7.008;2023-06-24T05:06:24;47604.31;;;-142.53;90.91
4133;BME280;2080;51.038;7.008;2023-06-24T05:08:50;47606.25;;;-142.53;90.78
4133;BME280;2080;51.038;7.008;2023-06-24T05:11:15;47598.53;;;-142.53;88.78
4133;BME280;2080;51.038;7.008;2023-06-24T05:13:40;47610.09;;;-142.53;90.22
4133;BME280;2080;51.038;7.008;2023-06-24T05:16:05;47629.34;;;-142.53;88.39
4133;BME280;2080;51.038;7.008;2023-06-24T05:18:33;47586.97;;;-142.53;88.09
4133;BME280;2080;51.038;7.008;2023-06-24T05:20:58;47598.53;;;-142.53;86.72
4133;BME280;2080;51.038;7.008;2023-06-24T05:23:23;47633.19;;;-142.53;85.69
4133;BME280;2080;51.038;7.008;2023-06-24T05:25:49;47648.63;;;-142.53;86.28
4133;BME280;2080;51.038;7.008;2023-06-24T05:28:16;47613.94;;;-142.53;84.00
4133;BME280;2080;51.038;7.008;2023-06-24T05:30:41;47629.34;;;-142.53;87.43
4133;BME280;2080;51.038;7.008;2023-06-24T05:33:09;47615.88;;;-142.53;86.87
4133;BME280;2080;51.038;7.008;2023-06-24T05:35:37;47621.66;;;-142.53;85.28
4133;BME280;2080;51.038;7.008;2023-06-24T05:38:07;47621.66;;;-142.53;85.93
4133;BME280;2080;51.038;7.008;2023-06-24T05:40:33;47656.31;;;-142.53;86.04
4133;BME280;2080;51.038;7.008;2023-06-24T05:43:00;47586.97;;;-142.53;87.03
4133;BME280;2080;51.038;7.008;2023-06-24T05:45:28;47613.94;;;-142.53;88.91
4133;BME280;2080;51.038;7.008;2023-06-24T05:47:53;47613.94;;;-142.53;90.24
4133;BME280;2080;51.038;7.008;2023-06-24T05:50:19;47625.50;;;-142.53;90.20
4133;BME280;2080;51.038;7.008;2023-06-24T05:52:44;47638.97;;;-142.53;90.54
4133;BME280;2080;51.038;7.008;2023-06-24T05:55:09;47656.31;;;-142.53;90.10
4133;BME280;2080;51.038;7.008;2023-06-24T05:57:34;47646.69;;;-142.53;91.10
4133;BME280;2080;51.038;7.008;2023-06-24T06:00:02;47617.78;;;-142.53;89.67
4133;BME280;2080;51.038;7.008;2023-06-24T06:02:28;47613.94;;;-142.53;90.84
4133;BME280;2080;51.038;7.008;2023-06-24T06:04:58;47633.19;;;-142.53;90.66
4133;BME280;2080;51.038;7.008;2023-06-24T06:07:23;47637.06;;;-142.53;90.76
4133;BME280;2080;51.038;7.008;2023-06-24T06:09:48;47637.06;;;-142.53;90.94
4133;BME280;2080;51.038;7.008;2023-06-24T06:12:13;47646.69;;;-142.53;90.52
4133;BME280;2080;51.038;7.008;2023-06-24T06:14:41;47658.25;;;-142.53;91.09
4133;BME280;2080;51.038;7.008;2023-06-24T06:17:08;47652.47;;;-142.53;91.82
4133;BME280;2080;51.038;7.008;2023-06-24T06:19:34;47667.88;;;-142.53;91.70
4133;BME280;2080;51.038;7.008;2023-06-24T06:22:01;47635.13;;;-142.53;90.45
4133;BME280;2080;51.038;7.008;2023-06-24T06:24:27;47617.78;;;-142.53;91.01
4133;BME280;2080;51.038;7.008;2023-06-24T06:26:52;47619.72;;;-142.53;91.17
4133;BME280;2080;51.038;7.008;2023-06-24T06:29:17;47613.94;;;-142.53;89.40
4133;BME280;2080;51.038;7.008;2023-06-24T06:31:42;47640.91;;;-142.53;89.92
4133;BME280;2080;51.038;7.008;2023-06-24T06:34:07;47610.09;;;-142.53;91.05
4133;BME280;2080;51.038;7.008;2023-06-24T06:36:33;47640.91;;;-142.53;88.89
4133;BME280;2080;51.038;7.008;2023-06-24T06:38:59;47621.66;;;-142.53;88.33
4133;BME280;2080;51.038;7.008;2023-06-24T06:41:24;47606.25;;;-142.53;86.65
4133;BME280;2080;51.038;7.008;2023-06-24T06:43:52;47625.50;;;-142.53;86.41
4133;BME280;2080;51.038;7.008;2023-06-24T06:46:18;47629.34;;;-142.53;85.13
4133;BME280;2080;51.038;7.008;2023-06-24T06:48:45;47623.56;;;-142.53;84.36
4133;BME280;2080;51.038;7.008;2023-06-24T06:51:13;47617.78;;;-142.53;84.69
4133;BME280;2080;51.038;7.008;2023-06-24T06:53:40;47583.13;;;-142.53;83.56
4133;BME280;2080;51.038;7.008;2023-06-24T06:56:06;47621.66;;;-142.53;81.99
4133;BME280;2080;51.038;7.008;2023-06-24T06:58:31;47621.66;;;-142.53;81.48
4133;BME280;2080;51.038;7.008;2023-06-24T07:00:56;47637.06;;;-142.53;81.12
4133;BME280;2080;51.038;7.008;2023-06-24T07:03:26;47598.53;;;-142.53;80.61
4133;BME280;2080;51.038;7.008;2023-06-24T07:05:52;47617.78;;;-142.53;81.54
4133;BME280;2080;51.038;7.008;2023-06-24T07:08:20;47623.56;;;-142.53;81.67
4133;BME280;2080;51.038;7.008;2023-06-24T07:10:47;47598.53;;;-142.53;80.55
4133;BME280;2080;51.038;7.008;2023-06-24T07:13:13;47625.50;;;-142.53;79.91
4133;BME280;2080;51.038;7.008;2023-06-24T07:15:38;47615.88;;;-142.53;79.50
4133;BME280;2080;51.038;7.008;2023-06-24T07:18:03;47604.31;;;-142.53;79.14
4133;BME280;2080;51.038;7.008;2023-06-24T07:20:29;47590.84;;;-142.53;79.02
4133;BME280;2080;51.038;7.008;2023-06-24T07:22:54;47586.97;;;-142.53;78.26
4133;BME280;2080;51.038;7.008;2023-06-24T07:25:19;47602.38;;;-142.53;77.27
4133;BME280;2080;51.038;7.008;2023-06-24T07:27:44;47610.09;;;-142.53;74.73
4133;BME280;2080;51.038;7.008;2023-06-24T07:30:10;47610.09;;;-142.53;74.73
4133;BME280;2080;51.038;7.008;2023-06-24T07:32:35;47588.91;;;-142.53;75.18
4133;BME280;2080;51.038;7.008;2023-06-24T07:35:00;47606.25;;;-142.53;74.91
4133;BME280;2080;51.038;7.008;2023-06-24T07:37:27;47586.97;;;-142.53;74.24
4133;BME280;2080;51.038;7.008;2023-06-24T07:39:55;47598.53;;;-142.53;73.35
4133;BME280;2080;51.038;7.008;2023-06-24T07:42:20;47602.38;;;-142.53;72.92
4133;BME280;2080;51.038;7.008;2023-06-24T07:44:46;47598.53;;;-142.53;73.94
4133;BME280;2080;51.038;7.008;2023-06-24T07:47:14;47583.13;;;-142.53;74.12
4133;BME280;2080;51.038;7.008;2023-06-24T07:49:39;47610.09;;;-142.53;71.93
4133;BME280;2080;51.038;7.008;2023-06-24T07:52:04;47598.53;;;-142.53;74.37
4133;BME280;2080;51.038;7.008;2023-06-24T07:54:33;47623.56;;;-142.53;71.61
4133;BME280;2080;51.038;7.008;2023-06-24T07:56:58;47586.97;;;-142.53;71.50
4133;BME280;2080;51.038;7.008;2023-06-24T07:59:24;47621.66;;;-142.53;70.25
4133;BME280;2080;51.038;7.008;2023-06-24T08:01:50;47588.91;;;-142.53;70.00
4133;BME280;2080;51.038;7.008;2023-06-24T08:04:15;47590.84;;;-142.53;68.33
4133;BME280;2080;51.038;7.008;2023-06-24T08:06:43;47637.06;;;-142.53;69.46
4133;BME280;2080;51.038;7.008;2023-06-24T08:09:10;47625.50;;;-142.53;70.16
4133;BME280;2080;51.038;7.008;2023-06-24T08:11:35;47610.09;;;-142.53;72.26
4133;BME280;2080;51.038;7.008;2023-06-24T08:14:03;47633.19;;;-142.53;72.07
4133;BME280;2080;51.038;7.008;2023-06-24T08:16:29;47606.25;;;-142.53;70.16
4133;BME280;2080;51.038;7.008;2023-06-24T08:18:56;47581.19;;;-142.53;69.43
4133;BME280;2080;51.038;7.008;2023-06-24T08:21:22;47604.31;;;-142.53;69.48
4133;BME280;2080;51.038;7.008;2023-06-24T08:23:49;47588.91;;;-142.53;70.02
4133;BME280;2080;51.038;7.008;2023-06-24T08:26:15;47610.09;;;-142.53;68.01
4133;BME280;2080;51.038;7.008;2023-06-24T08:28:40;47544.59;;;-142.53;67.68
4133;BME280;2080;51.038;7.008;2023-06-24T08:31:08;47583.13;;;-142.53;68.05
4133;BME280;2080;51.038;7.008;2023-06-24T08:33:33;47598.53;;;-142.53;67.15
4133;BME280;2080;51.038;7.008;2023-06-24T08:35:58;47598.53;;;-142.53;67.38
4133;BME280;2080;51.038;7.008;2023-06-24T08:38:24;47598.53;;;-142.53;65.41
4133;BME280;2080;51.038;7.008;2023-06-24T08:40:49;47608.16;;;-142.53;65.93
4133;BME280;2080;51.038;7.008;2023-06-24T08:43:14;47588.91;;;-142.53;67.52
4133;BME280;2080;51.038;7.008;2023-06-24T08:45:39;47613.94;;;-142.53;66.67
4133;BME280;2080;51.038;7.008;2023-06-24T08:48:07;47598.53;;;-142.53;67.71
4133;BME280;2080;51.038;7.008;2023-06-24T08:50:36;47586.97;;;-142.53;65.77
4133;BME280;2080;51.038;7.008;2023-06-24T08:53:07;47586.97;;;-142.53;66.34
4133;BME280;2080;51.038;7.008;2023-06-24T08:55:34;47613.94;;;-142.53;65.58
4133;BME280;2080;51.038;7.008;2023-06-24T08:58:06;47586.97;;;-142.53;65.86
4133;BME280;2080;51.038;7.008;2023-06-24T09:00:31;47594.69;;;-142.53;64.68
4133;BME280;2080;51.038;7.008;2023-06-24T09:02:57;47610.09;;;-142.53;64.46
4133;BME280;2080;51.038;7.008;2023-06-24T09:05:26;47583.13;;;-142.53;63.25
4133;BME280;2080;51.038;7.008;2023-06-24T09:07:52;47586.97;;;-142.53;65.19
4133;BME280;2080;51.038;7.008;2023-06-24T09:10:33;47588.91;;;-142.53;62.50
4133;BME280;2080;51.038;7.008;2023-06-24T09:13:00;47610.09;;;-142.53;61.84
4133;BME280;2080;51.038;7.008;2023-06-24T09:15:29;47563.88;;;-142.53;62.50
4133;BME280;2080;51.038;7.008;2023-06-24T09:17:56;47561.94;;;-142.53;61.97
4133;BME280;2080;51.038;7.008;2023-06-24T09:20:22;47598.53;;;-142.53;61.24
4133;BME280;2080;51.038;7.008;2023-06-24T09:22:48;47583.13;;;-142.53;59.66
4133;BME280;2080;51.038;7.008;2023-06-24T09:25:17;47583.13;;;-142.53;61.13
4133;BME280;2080;51.038;7.008;2023-06-24T09:27:46;47563.88;;;-142.53;61.01
4133;BME280;2080;51.038;7.008;2023-06-24T09:32:47;47579.28;;;-142.53;61.16
4133;BME280;2080;51.038;7.008;2023-06-24T09:35:13;47586.97;;;-142.53;59.70
4133;BME280;2080;51.038;7.008;2023-06-24T09:37:38;47590.84;;;-142.53;59.91
4133;BME280;2080;51.038;7.008;2023-06-24T09:40:04;47588.91;;;-142.53;60.94
4133;BME280;2080;51.038;7.008;2023-06-24T09:42:31;47598.53;;;-142.53;60.04
4133;BME280;2080;51.038;7.008;2023-06-24T09:44:56;47556.16;;;-142.53;58.71
4133;BME280;2080;51.038;7.008;2023-06-24T09:47:22;47552.31;;;-142.53;58.00
4133;BME280;2080;51.038;7.008;2023-06-24T09:49:53;47590.84;;;-142.53;57.40
4133;BME280;2080;51.038;7.008;2023-06-24T09:52:21;47596.59;;;-142.53;57.76
4133;BME280;2080;51.038;7.008;2023-06-24T09:54:50;47567.72;;;-142.53;56.71
4133;BME280;2080;51.038;7.008;2023-06-24T09:57:18;47610.09;;;-142.53;56.48
4133;BME280;2080;51.038;7.008;2023-06-24T09:59:44;47571.56;;;-142.53;58.65
4133;BME280;2080;51.038;7.008;2023-06-24T10:02:12;47586.97;;;-142.53;58.83
4133;BME280;2080;51.038;7.008;2023-06-24T10:04:38;47579.28;;;-142.53;57.29
4133;BME280;2080;51.038;7.008;2023-06-24T10:07:04;47579.28;;;-142.53;56.96
4133;BME280;2080;51.038;7.008;2023-06-24T10:09:31;47575.44;;;-142.53;54.61
4133;BME280;2080;51.038;7.008;2023-06-24T10:11:57;47594.69;;;-142.53;54.89
4133;BME280;2080;51.038;7.008;2023-06-24T10:14:22;47571.56;;;-142.53;53.57
4133;BME280;2080;51.038;7.008;2023-06-24T10:16:48;47567.72;;;-142.53;53.06
4133;BME280;2080;51.038;7.008;2023-06-24T10:19:18;47567.72;;;-142.53;53.06
4133;BME280;2080;51.038;7.008;2023-06-24T10:24:10;47552.31;;;-142.53;50.85
4133;BME280;2080;51.038;7.008;2023-06-24T10:26:35;47556.16;;;-142.53;50.80
4133;BME280;2080;51.038;7.008;2023-06-24T10:34:31;47560.00;;;-142.53;47.93
4133;BME280;2080;51.038;7.008;2023-06-24T10:37:00;47571.56;;;-142.53;46.81
4133;BME280;2080;51.038;7.008;2023-06-24T10:39:39;47548.47;;;-142.53;45.24
4133;BME280;2080;51.038;7.008;2023-06-24T10:44:48;47563.88;;;-142.53;42.26
4133;BME280;2080;51.038;7.008;2023-06-24T10:47:14;47575.44;;;-142.53;42.56
4133;BME280;2080;51.038;7.008;2023-06-24T10:49:39;47575.44;;;-142.53;43.07
4133;BME280;2080;51.038;7.008;2023-06-24T10:52:07;47536.91;;;-142.53;43.52
4133;BME280;2080;51.038;7.008;2023-06-24T10:54:32;47579.28;;;-142.53;43.93
4133;BME280;2080;51.038;7.008;2023-06-24T10:56:58;47552.31;;;-142.53;43.36
4133;BME280;2080;51.038;7.008;2023-06-24T10:59:23;47546.53;;;-142.53;41.79
4133;BME280;2080;51.038;7.008;2023-06-24T11:01:54;47563.88;;;-142.53;41.58
4133;BME280;2080;51.038;7.008;2023-06-24T11:04:19;47571.56;;;-142.53;39.93
4133;BME280;2080;51.038;7.008;2023-06-24T11:07:00;47533.06;;;-142.53;39.88
4133;BME280;2080;51.038;7.008;2023-06-24T11:09:26;47552.31;;;-142.53;39.84
4133;BME280;2080;51.038;7.008;2023-06-24T11:11:54;47556.16;;;-142.53;39.58
4133;BME280;2080;51.038;7.008;2023-06-24T11:14:19;47548.47;;;-142.53;39.94
4133;BME280;2080;51.038;7.008;2023-06-24T11:16:45;47563.88;;;-142.53;39.65
4133;BME280;2080;51.038;7.008;2023-06-24T11:19:15;47569.66;;;-142.53;40.12
4133;BME280;2080;51.038;7.008;2023-06-24T11:21:41;47563.88;;;-142.53;40.29
4133;BME280;2080;51.038;7.008;2023-06-24T11:24:06;47561.94;;;-142.53;39.40
4133;BME280;2080;51.038;7.008;2023-06-24T11:26:34;47544.59;;;-142.53;39.85
4133;BME280;2080;51.038;7.008;2023-06-24T11:29:00;47534.97;;;-142.53;38.42
4133;BME280;2080;51.038;7.008;2023-06-24T11:31:25;47552.31;;;-142.53;38.09
4133;BME280;2080;51.038;7.008;2023-06-24T11:33:50;47573.50;;;-142.53;36.25
4133;BME280;2080;51.038;7.008;2023-06-24T11:36:16;47571.56;;;-142.53;36.60
4133;BME280;2080;51.038;7.008;2023-06-24T11:38:41;47554.25;;;-142.53;34.33
4133;BME280;2080;51.038;7.008;2023-06-24T11:41:07;47560.00;;;-142.53;35.61
4133;BME280;2080;51.038;7.008;2023-06-24T11:43:34;47548.47;;;-142.53;35.54
4133;BME280;2080;51.038;7.008;2023-06-24T11:46:00;47556.16;;;-142.53;35.66
4133;BME280;2080;51.038;7.008;2023-06-24T11:48:28;47536.91;;;-142.53;35.75
4133;BME280;2080;51.038;7.008;2023-06-24T11:50:54;47556.16;;;-142.53;35.33
4133;BME280;2080;51.038;7.008;2023-06-24T11:53:40;47536.91;;;-142.53;34.42
4133;BME280;2080;51.038;7.008;2023-06-24T11:56:07;47579.28;;;-142.53;34.76
4133;BME280;2080;51.038;7.008;2023-06-24T11:58:34;47540.75;;;-142.53;36.11
4133;BME280;2080;51.038;7.008;2023-06-24T12:01:03;47567.72;;;-142.53;36.11
4133;BME280;2080;51.038;7.008;2023-06-24T12:03:31;47523.41;;;-142.53;34.65
4133;BME280;2080;51.038;7.008;2023-06-24T12:05:59;47554.25;;;-142.53;34.24
4133;BME280;2080;51.038;7.008;2023-06-24T12:08:30;47540.75;;;-142.53;34.61
4133;BME280;2080;51.038;7.008;2023-06-24T12:10:55;47509.94;;;-142.53;34.61
4133;BME280;2080;51.038;7.008;2023-06-24T12:13:21;47502.25;;;-142.53;34.96
4133;BME280;2080;51.038;7.008;2023-06-24T12:15:46;47529.19;;;-142.53;35.43
4133;BME280;2080;51.038;7.008;2023-06-24T12:18:12;47534.97;;;-142.53;36.00
4133;BME280;2080;51.038;7.008;2023-06-24T12:20:37;47546.53;;;-142.53;35.82
4133;BME280;2080;51.038;7.008;2023-06-24T12:23:02;47540.75;;;-142.53;36.61
4133;BME280;2080;51.038;7.008;2023-06-24T12:25:31;47517.66;;;-142.53;34.96
4133;BME280;2080;51.038;7.008;2023-06-24T12:27:56;47523.41;;;-142.53;35.08
4133;BME280;2080;51.038;7.008;2023-06-24T12:30:24;47496.47;;;-142.53;35.94
4133;BME280;2080;51.038;7.008;2023-06-24T12:32:50;47521.50;;;-142.53;35.39
4133;BME280;2080;51.038;7.008;2023-06-24T12:35:15;47544.59;;;-142.53;35.14
4133;BME280;2080;51.038;7.008;2023-06-24T12:37:40;47542.69;;;-142.53;35.02
4133;BME280;2080;51.038;7.008;2023-06-24T12:40:06;47560.00;;;-142.53;36.25
4133;BME280;2080;51.038;7.008;2023-06-24T12:42:31;47529.19;;;-142.53;35.86
4133;BME280;2080;51.038;7.008;2023-06-24T12:44:57;47525.34;;;-142.53;35.40
4133;BME280;2080;51.038;7.008;2023-06-24T12:47:22;47513.78;;;-142.53;36.18
4133;BME280;2080;51.038;7.008;2023-06-24T12:49:47;47517.66;;;-142.53;35.33
4133;BME280;2080;51.038;7.008;2023-06-24T12:52:13;47529.19;;;-142.53;36.09
4133;BME280;2080;51.038;7.008;2023-06-24T12:54:38;47560.00;;;-142.53;36.74
4133;BME280;2080;51.038;7.008;2023-06-24T12:57:03;47531.13;;;-142.53;37.04
4133;BME280;2080;51.038;7.008;2023-06-24T12:59:29;47540.75;;;-142.53;37.13
4133;BME280;2080;51.038;7.008;2023-06-24T13:01:54;47536.91;;;-142.53;36.47
4133;BME280;2080;51.038;7.008;2023-06-24T13:04:22;47502.25;;;-142.53;36.17
4133;BME280;2080;51.038;7.008;2023-06-24T13:06:49;47502.25;;;-142.53;36.55
4133;BME280;2080;51.038;7.008;2023-06-24T13:09:14;47509.94;;;-142.53;35.70
4133;BME280;2080;51.038;7.008;2023-06-24T13:11:39;47540.75;;;-142.53;36.19
4133;BME280;2080;51.038;7.008;2023-06-24T13:14:05;47517.66;;;-142.53;35.65
4133;BME280;2080;51.038;7.008;2023-06-24T13:16:33;47517.66;;;-142.53;35.69